Main page
METAR-TAF:

METAR-TAF

Airports :

Chiang Mai International Airport

Chiang Mai, Thailand

latitude: 18-47N, longitude: 098-59E, elevation: 312 m

Current weather observation

The report was made 36 minutes ago, at 21:00 UTC
Wind 1 kt from variable directions
Temperature 28°C
Humidity 55%
Pressure 1004 hPa
Visibility: 7000 m

METAR: VTCC 222100Z VRB01KT 7000 NSC 28/18 Q1004 NOSIG

Time: 04:36 (21:36 UTC)

Forecast

The report was made 4 hours and 36 minutes ago, at 17:00 UTC
Forecast valid from 22 at 18 UTC to 23 at 24 UTC
Wind 5 kt from the Southwest
Visibility: 8000 m
Few clouds at a height of 3500 ft
Becoming
from 22 at 20 UTC to 22 at 22 UTC
Wind 5 kt from the North
Becoming
from 23 at 01 UTC to 23 at 03 UTC
Wind 5 kt from the South
Becoming
from 23 at 09 UTC to 23 at 11 UTC
Wind 5 kt from the Southwest
Becoming
from 23 at 14 UTC to 23 at 16 UTC
Wind 5 kt from the North

TAF: VTCC 221700Z 2218/2324 23005KT 8000 FEW035 BECMG 2220/2222 35005KT BECMG 2301/2303 17005KT BECMG 2309/2311 23005KT BECMG 2314/2316 35005KT

Weather observations and forecasts of more than 4000 airports (METAR and TAF reports).

The available stations are represented by yellow and red dots on the map.

Hover mouse over dot to see the name of the station.

Then click to see weather observations and forecasts.

To change the map : click on the green buttons with a black cross to zoom in, on the green button with a dash to zoom out, or on the green arrows for adjacent maps.


METAR-TAF: